Haines, AK (99827)

10:13 AM AKDT on August 04, 2015 (GMT -0800)
Letnikof Cove | | Change Station
CLOSE
Current Station
Personal Weather Station
Location: Haines, AK
Elevation: 230 ft
Nearby Weather Stations

Elev 230 ft 59.17 °N, 135.39 °W | Updated 29 seconds ago

Clear
Clear
74.1 °F
Feels Like 77 °F
N
2.9
Wind Variable Wind from North
Gusts 5.8 mph

Today
High -- | Low -- °F
--% Chance of Precip.
Yesterday
High -- | Low -- °F
Precip. -- in
4:54 AM 9:20 PM
Waning Gibbous, 75% visible
Pressure 29.93 in
Visibility 10.0 miles
Clouds Clear
Heat Index 77 °F
Dew Point 46 °F
Humidity 36%
Rainfall 0.00 in
Snow Depth Not available.
UV 4.0 out of 12
Pollen Not available.
Air Quality Not available.
Flu Activity Not available.
METAR PAHN 041754Z AUTO 31013KT 10SM CLR 21/09 A2992 RMK AO2 SLP135 T02110094 10211 20139 58007 TSNO

More Conditions Fewer Conditions

Pressure 29.93 in
Visibility 10.0 miles
Clouds Clear
Heat Index 77 °F
Dew Point 46 °F
Humidity 36%
Rainfall 0.00 in
Snow Depth Not available.
UV 4.0 out of 12
Pollen Not available.
Air Quality Not available.
Flu Activity Not available.
METAR PAHN 041754Z AUTO 31013KT 10SM CLR 21/09 A2992 RMK AO2 SLP135 T02110094 10211 20139 58007 TSNO

More Conditions Fewer Conditions

10-Day Weather Forecast

×

Almanac

Astronomy

Aug. 04, 2015 Rise Set
Actual Time
Civil Twilight
Nautical Twilight
Astronomical Twilight
Moon
Length of Visible Light
Length of Day
Tomorrow will be .
, % of the Moon is Illuminated

Today's Extremes

State Highs State Lows

Community

WunderPhotos

Upload Photos

1,843,935 photos uploaded!

WunderBlogs® & News

Nearby

Air Quality

  Air Quality AQ Index Pollutant
Not available.

Snow Depth

Station Depth Elevation

Earthquake Activity

City Distance Mag. Time & Date
Minimum magnitude displayed is 2.5.

Coastal Water Temperatures

Place Temperature

Stations

Nearby Weather Stations

Station Location Temp. Windchill Dew Point Humidity Wind Precip. Elev Updated Type